sensor_id;sensor_type;location;lat;lon;timestamp;P1;durP1;ratioP1;P2;durP2;ratioP2
11504;SDS011;5809;53.262;10.408;2023-07-16T00:01:01;1.83;;;1.15;;
11504;SDS011;5809;53.262;10.408;2023-07-16T00:03:28;1.38;;;1.20;;
11504;SDS011;5809;53.262;10.408;2023-07-16T00:05:55;1.75;;;1.20;;
11504;SDS011;5809;53.262;10.408;2023-07-16T00:08:21;2.33;;;1.30;;
11504;SDS011;5809;53.262;10.408;2023-07-16T00:10:50;1.42;;;1.20;;
11504;SDS011;5809;53.262;10.408;2023-07-16T00:13:16;1.83;;;1.10;;
11504;SDS011;5809;53.262;10.408;2023-07-16T00:15:43;1.65;;;1.20;;
11504;SDS011;5809;53.262;10.408;2023-07-16T00:18:10;1.75;;;1.30;;
11504;SDS011;5809;53.262;10.408;2023-07-16T00:20:37;2.40;;;1.30;;
11504;SDS011;5809;53.262;10.408;2023-07-16T00:23:04;2.25;;;1.30;;
11504;SDS011;5809;53.262;10.408;2023-07-16T00:25:30;1.73;;;1.20;;
11504;SDS011;5809;53.262;10.408;2023-07-16T00:27:59;1.77;;;1.30;;
11504;SDS011;5809;53.262;10.408;2023-07-16T00:30:25;2.53;;;1.40;;
11504;SDS011;5809;53.262;10.408;2023-07-16T00:32:52;2.33;;;1.50;;
11504;SDS011;5809;53.262;10.408;2023-07-16T00:35:19;2.38;;;1.50;;
11504;SDS011;5809;53.262;10.408;2023-07-16T00:37:46;1.80;;;1.30;;
11504;SDS011;5809;53.262;10.408;2023-07-16T00:40:12;1.92;;;1.33;;
11504;SDS011;5809;53.262;10.408;2023-07-16T00:42:39;2.03;;;1.30;;
11504;SDS011;5809;53.262;10.408;2023-07-16T00:45:11;1.45;;;1.30;;
11504;SDS011;5809;53.262;10.408;2023-07-16T00:47:40;2.05;;;1.13;;
11504;SDS011;5809;53.262;10.408;2023-07-16T00:50:07;2.13;;;1.40;;
11504;SDS011;5809;53.262;10.408;2023-07-16T00:52:37;1.73;;;0.93;;
11504;SDS011;5809;53.262;10.408;2023-07-16T00:55:05;2.45;;;1.38;;
11504;SDS011;5809;53.262;10.408;2023-07-16T00:57:33;1.98;;;1.25;;
11504;SDS011;5809;53.262;10.408;2023-07-16T01:00:00;1.40;;;1.30;;
11504;SDS011;5809;53.262;10.408;2023-07-16T01:02:28;2.75;;;1.17;;
11504;SDS011;5809;53.262;10.408;2023-07-16T01:04:55;1.65;;;1.38;;
11504;SDS011;5809;53.262;10.408;2023-07-16T01:07:23;2.28;;;1.30;;
11504;SDS011;5809;53.262;10.408;2023-07-16T01:09:51;2.05;;;1.40;;
11504;SDS011;5809;53.262;10.408;2023-07-16T01:12:20;2.47;;;1.20;;
11504;SDS011;5809;53.262;10.408;2023-07-16T01:14:48;1.63;;;1.20;;
11504;SDS011;5809;53.262;10.408;2023-07-16T01:17:17;2.28;;;1.40;;
11504;SDS011;5809;53.262;10.408;2023-07-16T01:19:45;3.13;;;1.50;;
11504;SDS011;5809;53.262;10.408;2023-07-16T01:22:27;1.52;;;1.13;;
11504;SDS011;5809;53.262;10.408;2023-07-16T01:25:08;1.67;;;1.30;;
11504;SDS011;5809;53.262;10.408;2023-07-16T01:28:02;1.20;;;1.10;;
11504;SDS011;5809;53.262;10.408;2023-07-16T01:30:44;3.45;;;1.42;;
11504;SDS011;5809;53.262;10.408;2023-07-16T01:33:12;3.78;;;1.48;;
11504;SDS011;5809;53.262;10.408;2023-07-16T01:35:41;2.10;;;1.30;;
11504;SDS011;5809;53.262;10.408;2023-07-16T01:38:09;2.38;;;1.23;;
11504;SDS011;5809;53.262;10.408;2023-07-16T01:40:36;1.40;;;1.20;;
11504;SDS011;5809;53.262;10.408;2023-07-16T01:43:03;2.05;;;1.20;;
11504;SDS011;5809;53.262;10.408;2023-07-16T01:45:30;2.55;;;1.40;;
11504;SDS011;5809;53.262;10.408;2023-07-16T01:48:01;2.28;;;1.42;;
11504;SDS011;5809;53.262;10.408;2023-07-16T01:50:39;3.50;;;1.60;;
11504;SDS011;5809;53.262;10.408;2023-07-16T01:53:05;3.10;;;1.52;;
11504;SDS011;5809;53.262;10.408;2023-07-16T01:55:32;2.28;;;1.40;;
11504;SDS011;5809;53.262;10.408;2023-07-16T01:57:59;2.95;;;1.38;;
11504;SDS011;5809;53.262;10.408;2023-07-16T02:00:26;4.47;;;1.30;;
11504;SDS011;5809;53.262;10.408;2023-07-16T02:02:53;2.47;;;1.60;;
11504;SDS011;5809;53.262;10.408;2023-07-16T02:05:21;2.30;;;1.40;;
11504;SDS011;5809;53.262;10.408;2023-07-16T02:07:48;1.65;;;1.38;;
11504;SDS011;5809;53.262;10.408;2023-07-16T02:10:14;2.42;;;1.48;;
11504;SDS011;5809;53.262;10.408;2023-07-16T02:12:41;2.45;;;1.77;;
11504;SDS011;5809;53.262;10.408;2023-07-16T02:15:08;2.67;;;1.40;;
11504;SDS011;5809;53.262;10.408;2023-07-16T02:17:35;1.50;;;1.30;;
11504;SDS011;5809;53.262;10.408;2023-07-16T02:20:02;2.28;;;1.35;;
11504;SDS011;5809;53.262;10.408;2023-07-16T02:22:33;2.50;;;1.60;;
11504;SDS011;5809;53.262;10.408;2023-07-16T02:25:01;2.97;;;1.20;;
11504;SDS011;5809;53.262;10.408;2023-07-16T02:27:28;4.57;;;2.03;;
11504;SDS011;5809;53.262;10.408;2023-07-16T02:29:55;1.77;;;1.45;;
11504;SDS011;5809;53.262;10.408;2023-07-16T02:32:22;1.77;;;1.38;;
11504;SDS011;5809;53.262;10.408;2023-07-16T02:34:49;4.50;;;1.35;;
11504;SDS011;5809;53.262;10.408;2023-07-16T02:37:16;2.20;;;1.63;;
11504;SDS011;5809;53.262;10.408;2023-07-16T02:39:44;3.17;;;1.42;;
11504;SDS011;5809;53.262;10.408;2023-07-16T02:42:12;2.25;;;1.55;;
11504;SDS011;5809;53.262;10.408;2023-07-16T02:44:39;2.08;;;1.50;;
11504;SDS011;5809;53.262;10.408;2023-07-16T02:47:09;2.25;;;1.55;;
11504;SDS011;5809;53.262;10.408;2023-07-16T02:49:36;2.47;;;1.60;;
11504;SDS011;5809;53.262;10.408;2023-07-16T02:52:04;2.40;;;1.63;;
11504;SDS011;5809;53.262;10.408;2023-07-16T02:54:31;3.60;;;1.77;;
11504;SDS011;5809;53.262;10.408;2023-07-16T02:56:59;2.28;;;1.80;;
11504;SDS011;5809;53.262;10.408;2023-07-16T02:59:26;3.25;;;1.80;;
11504;SDS011;5809;53.262;10.408;2023-07-16T03:01:53;3.35;;;1.70;;
11504;SDS011;5809;53.262;10.408;2023-07-16T03:04:20;3.55;;;1.45;;
11504;SDS011;5809;53.262;10.408;2023-07-16T03:06:47;5.47;;;1.92;;
11504;SDS011;5809;53.262;10.408;2023-07-16T03:09:14;4.55;;;2.10;;
11504;SDS011;5809;53.262;10.408;2023-07-16T03:11:41;3.05;;;1.80;;
11504;SDS011;5809;53.262;10.408;2023-07-16T03:14:09;2.60;;;1.55;;
11504;SDS011;5809;53.262;10.408;2023-07-16T03:16:35;2.28;;;1.80;;
11504;SDS011;5809;53.262;10.408;2023-07-16T03:19:02;3.65;;;2.03;;
11504;SDS011;5809;53.262;10.408;2023-07-16T03:21:29;3.78;;;1.70;;
11504;SDS011;5809;53.262;10.408;2023-07-16T03:23:56;2.20;;;1.75;;
11504;SDS011;5809;53.262;10.408;2023-07-16T03:26:23;5.47;;;1.85;;
11504;SDS011;5809;53.262;10.408;2023-07-16T03:28:49;2.33;;;1.50;;
11504;SDS011;5809;53.262;10.408;2023-07-16T03:31:18;6.07;;;2.30;;
11504;SDS011;5809;53.262;10.408;2023-07-16T03:33:44;2.92;;;2.00;;
11504;SDS011;5809;53.262;10.408;2023-07-16T03:36:11;5.03;;;2.05;;
11504;SDS011;5809;53.262;10.408;2023-07-16T03:38:38;3.22;;;1.73;;
11504;SDS011;5809;53.262;10.408;2023-07-16T03:41:05;3.00;;;2.00;;
11504;SDS011;5809;53.262;10.408;2023-07-16T03:43:32;3.10;;;1.92;;
11504;SDS011;5809;53.262;10.408;2023-07-16T03:45:59;4.90;;;1.98;;
11504;SDS011;5809;53.262;10.408;2023-07-16T03:48:27;3.78;;;2.20;;
11504;SDS011;5809;53.262;10.408;2023-07-16T03:50:54;2.15;;;1.63;;
11504;SDS011;5809;53.262;10.408;2023-07-16T03:53:20;4.90;;;1.42;;
11504;SDS011;5809;53.262;10.408;2023-07-16T03:55:47;2.65;;;2.00;;
11504;SDS011;5809;53.262;10.408;2023-07-16T03:58:14;2.78;;;1.77;;
11504;SDS011;5809;53.262;10.408;2023-07-16T04:00:41;2.90;;;2.00;;
11504;SDS011;5809;53.262;10.408;2023-07-16T04:03:09;2.05;;;1.75;;
11504;SDS011;5809;53.262;10.408;2023-07-16T04:05:37;2.85;;;2.00;;
11504;SDS011;5809;53.262;10.408;2023-07-16T04:08:04;2.08;;;1.63;;
11504;SDS011;5809;53.262;10.408;2023-07-16T04:10:31;3.53;;;2.28;;
11504;SDS011;5809;53.262;10.408;2023-07-16T04:12:57;4.03;;;2.00;;
11504;SDS011;5809;53.262;10.408;2023-07-16T04:15:24;3.35;;;1.98;;
11504;SDS011;5809;53.262;10.408;2023-07-16T04:17:51;5.10;;;2.17;;
11504;SDS011;5809;53.262;10.408;2023-07-16T04:20:18;3.10;;;2.20;;
11504;SDS011;5809;53.262;10.408;2023-07-16T04:22:46;4.65;;;2.13;;
11504;SDS011;5809;53.262;10.408;2023-07-16T04:25:13;4.70;;;2.10;;
11504;SDS011;5809;53.262;10.408;2023-07-16T04:27:41;4.95;;;2.30;;
11504;SDS011;5809;53.262;10.408;2023-07-16T04:30:09;2.92;;;2.10;;
11504;SDS011;5809;53.262;10.408;2023-07-16T04:32:36;7.00;;;2.45;;
11504;SDS011;5809;53.262;10.408;2023-07-16T04:35:03;2.42;;;1.90;;
11504;SDS011;5809;53.262;10.408;2023-07-16T04:37:31;4.28;;;2.20;;
11504;SDS011;5809;53.262;10.408;2023-07-16T04:39:59;3.33;;;2.08;;
11504;SDS011;5809;53.262;10.408;2023-07-16T04:42:26;3.58;;;2.05;;
11504;SDS011;5809;53.262;10.408;2023-07-16T04:44:52;3.60;;;2.03;;
11504;SDS011;5809;53.262;10.408;2023-07-16T04:47:19;3.47;;;2.08;;
11504;SDS011;5809;53.262;10.408;2023-07-16T04:49:46;3.08;;;1.75;;
11504;SDS011;5809;53.262;10.408;2023-07-16T04:52:13;2.97;;;1.75;;
11504;SDS011;5809;53.262;10.408;2023-07-16T04:54:40;2.20;;;1.80;;
11504;SDS011;5809;53.262;10.408;2023-07-16T04:57:08;1.85;;;1.55;;
11504;SDS011;5809;53.262;10.408;2023-07-16T04:59:35;3.40;;;2.03;;
11504;SDS011;5809;53.262;10.408;2023-07-16T05:02:04;3.30;;;2.30;;
11504;SDS011;5809;53.262;10.408;2023-07-16T05:04:32;3.10;;;2.08;;
11504;SDS011;5809;53.262;10.408;2023-07-16T05:06:59;3.70;;;2.05;;
11504;SDS011;5809;53.262;10.408;2023-07-16T05:09:26;2.92;;;1.80;;
11504;SDS011;5809;53.262;10.408;2023-07-16T05:11:53;3.17;;;1.90;;
11504;SDS011;5809;53.262;10.408;2023-07-16T05:14:21;2.70;;;2.03;;
11504;SDS011;5809;53.262;10.408;2023-07-16T05:16:48;3.25;;;1.95;;
11504;SDS011;5809;53.262;10.408;2023-07-16T05:19:15;2.60;;;1.80;;
11504;SDS011;5809;53.262;10.408;2023-07-16T05:21:42;3.00;;;1.58;;
11504;SDS011;5809;53.262;10.408;2023-07-16T05:24:09;4.53;;;2.20;;
11504;SDS011;5809;53.262;10.408;2023-07-16T05:26:35;5.63;;;1.90;;
11504;SDS011;5809;53.262;10.408;2023-07-16T05:29:02;4.47;;;2.00;;
11504;SDS011;5809;53.262;10.408;2023-07-16T05:31:30;2.80;;;2.10;;
11504;SDS011;5809;53.262;10.408;2023-07-16T05:33:57;3.67;;;1.95;;
11504;SDS011;5809;53.262;10.408;2023-07-16T05:36:24;4.78;;;2.00;;
11504;SDS011;5809;53.262;10.408;2023-07-16T05:38:51;4.05;;;2.05;;
11504;SDS011;5809;53.262;10.408;2023-07-16T05:41:17;4.75;;;1.77;;
11504;SDS011;5809;53.262;10.408;2023-07-16T05:43:44;2.70;;;1.77;;
11504;SDS011;5809;53.262;10.408;2023-07-16T05:46:11;3.22;;;1.88;;
11504;SDS011;5809;53.262;10.408;2023-07-16T05:48:39;2.88;;;1.80;;
11504;SDS011;5809;53.262;10.408;2023-07-16T05:51:06;2.78;;;1.67;;
11504;SDS011;5809;53.262;10.408;2023-07-16T05:53:33;3.83;;;1.65;;
11504;SDS011;5809;53.262;10.408;2023-07-16T05:56:00;4.18;;;1.90;;
11504;SDS011;5809;53.262;10.408;2023-07-16T05:58:27;3.28;;;2.00;;
11504;SDS011;5809;53.262;10.408;2023-07-16T06:00:54;3.88;;;1.70;;
11504;SDS011;5809;53.262;10.408;2023-07-16T06:03:21;2.92;;;1.60;;
11504;SDS011;5809;53.262;10.408;2023-07-16T06:05:49;3.80;;;1.90;;
11504;SDS011;5809;53.262;10.408;2023-07-16T06:08:16;1.85;;;1.42;;
11504;SDS011;5809;53.262;10.408;2023-07-16T06:10:42;3.67;;;1.92;;
11504;SDS011;5809;53.262;10.408;2023-07-16T06:13:09;3.65;;;1.90;;
11504;SDS011;5809;53.262;10.408;2023-07-16T06:15:36;4.38;;;1.92;;
11504;SDS011;5809;53.262;10.408;2023-07-16T06:18:03;3.40;;;2.10;;
11504;SDS011;5809;53.262;10.408;2023-07-16T06:20:30;3.65;;;1.92;;
11504;SDS011;5809;53.262;10.408;2023-07-16T06:22:58;6.03;;;1.92;;
11504;SDS011;5809;53.262;10.408;2023-07-16T06:25:25;4.35;;;2.05;;
11504;SDS011;5809;53.262;10.408;2023-07-16T06:27:52;2.13;;;1.63;;
11504;SDS011;5809;53.262;10.408;2023-07-16T06:30:19;3.50;;;1.85;;
11504;SDS011;5809;53.262;10.408;2023-07-16T06:32:46;6.10;;;1.95;;
11504;SDS011;5809;53.262;10.408;2023-07-16T06:35:13;2.65;;;1.88;;
11504;SDS011;5809;53.262;10.408;2023-07-16T06:37:40;3.30;;;1.80;;
11504;SDS011;5809;53.262;10.408;2023-07-16T06:40:09;5.10;;;2.30;;
11504;SDS011;5809;53.262;10.408;2023-07-16T06:42:36;3.72;;;1.80;;
11504;SDS011;5809;53.262;10.408;2023-07-16T06:45:03;5.13;;;2.17;;
11504;SDS011;5809;53.262;10.408;2023-07-16T06:47:30;2.85;;;1.52;;
11504;SDS011;5809;53.262;10.408;2023-07-16T06:49:57;3.80;;;2.05;;
11504;SDS011;5809;53.262;10.408;2023-07-16T06:52:24;3.30;;;1.90;;
11504;SDS011;5809;53.262;10.408;2023-07-16T06:54:52;4.68;;;2.00;;
11504;SDS011;5809;53.262;10.408;2023-07-16T06:57:21;5.05;;;2.10;;
11504;SDS011;5809;53.262;10.408;2023-07-16T06:59:48;5.60;;;2.20;;
11504;SDS011;5809;53.262;10.408;2023-07-16T07:02:15;4.95;;;1.90;;
11504;SDS011;5809;53.262;10.408;2023-07-16T07:04:43;2.63;;;1.80;;
11504;SDS011;5809;53.262;10.408;2023-07-16T07:07:10;2.38;;;1.80;;
11504;SDS011;5809;53.262;10.408;2023-07-16T07:09:37;3.83;;;2.03;;
11504;SDS011;5809;53.262;10.408;2023-07-16T07:12:04;3.80;;;1.63;;
11504;SDS011;5809;53.262;10.408;2023-07-16T07:14:34;3.25;;;1.65;;
11504;SDS011;5809;53.262;10.408;2023-07-16T07:17:01;5.60;;;2.00;;
11504;SDS011;5809;53.262;10.408;2023-07-16T07:19:28;2.65;;;1.92;;
11504;SDS011;5809;53.262;10.408;2023-07-16T07:21:55;5.32;;;2.22;;
11504;SDS011;5809;53.262;10.408;2023-07-16T07:24:21;5.78;;;2.10;;
11504;SDS011;5809;53.262;10.408;2023-07-16T07:26:48;5.25;;;2.05;;
11504;SDS011;5809;53.262;10.408;2023-07-16T07:29:15;5.57;;;1.88;;
11504;SDS011;5809;53.262;10.408;2023-07-16T07:31:43;3.05;;;1.98;;
11504;SDS011;5809;53.262;10.408;2023-07-16T07:34:10;4.13;;;1.92;;
11504;SDS011;5809;53.262;10.408;2023-07-16T07:36:37;2.88;;;1.80;;
11504;SDS011;5809;53.262;10.408;2023-07-16T07:39:04;3.88;;;1.95;;
11504;SDS011;5809;53.262;10.408;2023-07-16T07:41:31;3.40;;;2.00;;
11504;SDS011;5809;53.262;10.408;2023-07-16T07:43:57;5.15;;;1.90;;
11504;SDS011;5809;53.262;10.408;2023-07-16T07:46:24;4.15;;;2.00;;
11504;SDS011;5809;53.262;10.408;2023-07-16T07:48:52;4.88;;;2.17;;
11504;SDS011;5809;53.262;10.408;2023-07-16T07:51:19;4.32;;;2.00;;
11504;SDS011;5809;53.262;10.408;2023-07-16T07:53:46;5.40;;;2.03;;
11504;SDS011;5809;53.262;10.408;2023-07-16T07:56:13;4.05;;;2.30;;
11504;SDS011;5809;53.262;10.408;2023-07-16T07:58:40;4.00;;;2.15;;
11504;SDS011;5809;53.262;10.408;2023-07-16T08:01:07;3.92;;;2.00;;
11504;SDS011;5809;53.262;10.408;2023-07-16T08:03:34;4.78;;;2.00;;
11504;SDS011;5809;53.262;10.408;2023-07-16T08:06:02;6.15;;;2.10;;
11504;SDS011;5809;53.262;10.408;2023-07-16T08:08:29;5.72;;;2.30;;
11504;SDS011;5809;53.262;10.408;2023-07-16T08:10:56;4.82;;;1.90;;
11504;SDS011;5809;53.262;10.408;2023-07-16T08:13:23;3.78;;;1.88;;
11504;SDS011;5809;53.262;10.408;2023-07-16T08:15:50;4.57;;;1.98;;
11504;SDS011;5809;53.262;10.408;2023-07-16T08:18:16;4.78;;;1.92;;
11504;SDS011;5809;53.262;10.408;2023-07-16T08:20:43;3.67;;;2.00;;
11504;SDS011;5809;53.262;10.408;2023-07-16T08:23:11;5.22;;;2.08;;
11504;SDS011;5809;53.262;10.408;2023-07-16T08:25:38;2.88;;;1.85;;
11504;SDS011;5809;53.262;10.408;2023-07-16T08:28:05;2.78;;;1.80;;
11504;SDS011;5809;53.262;10.408;2023-07-16T08:30:32;2.72;;;1.95;;
11504;SDS011;5809;53.262;10.408;2023-07-16T08:32:59;3.80;;;2.00;;
11504;SDS011;5809;53.262;10.408;2023-07-16T08:35:26;8.10;;;2.53;;
11504;SDS011;5809;53.262;10.408;2023-07-16T08:37:52;4.90;;;2.17;;
11504;SDS011;5809;53.262;10.408;2023-07-16T08:40:21;4.07;;;2.65;;
11504;SDS011;5809;53.262;10.408;2023-07-16T08:42:47;4.45;;;2.50;;
11504;SDS011;5809;53.262;10.408;2023-07-16T08:45:15;4.22;;;2.53;;
11504;SDS011;5809;53.262;10.408;2023-07-16T08:47:43;4.72;;;2.40;;
11504;SDS011;5809;53.262;10.408;2023-07-16T08:50:10;3.08;;;2.08;;
11504;SDS011;5809;53.262;10.408;2023-07-16T08:52:38;4.10;;;2.20;;
11504;SDS011;5809;53.262;10.408;2023-07-16T08:55:06;8.20;;;2.50;;
11504;SDS011;5809;53.262;10.408;2023-07-16T08:57:35;7.40;;;2.58;;
11504;SDS011;5809;53.262;10.408;2023-07-16T09:00:03;4.47;;;2.28;;
11504;SDS011;5809;53.262;10.408;2023-07-16T09:02:31;4.05;;;2.50;;
11504;SDS011;5809;53.262;10.408;2023-07-16T09:04:58;5.18;;;2.50;;
11504;SDS011;5809;53.262;10.408;2023-07-16T09:07:26;4.22;;;2.30;;
11504;SDS011;5809;53.262;10.408;2023-07-16T09:09:56;7.38;;;2.53;;
11504;SDS011;5809;53.262;10.408;2023-07-16T09:12:25;6.30;;;2.40;;
11504;SDS011;5809;53.262;10.408;2023-07-16T09:14:53;3.63;;;2.45;;
11504;SDS011;5809;53.262;10.408;2023-07-16T09:17:20;5.55;;;2.38;;
11504;SDS011;5809;53.262;10.408;2023-07-16T09:19:48;4.38;;;2.45;;
11504;SDS011;5809;53.262;10.408;2023-07-16T09:22:16;4.25;;;2.70;;
11504;SDS011;5809;53.262;10.408;2023-07-16T09:24:44;7.13;;;3.05;;
11504;SDS011;5809;53.262;10.408;2023-07-16T09:27:12;5.50;;;2.70;;
11504;SDS011;5809;53.262;10.408;2023-07-16T09:29:40;8.00;;;2.50;;
11504;SDS011;5809;53.262;10.408;2023-07-16T09:32:08;3.72;;;2.63;;
11504;SDS011;5809;53.262;10.408;2023-07-16T09:34:35;5.00;;;2.50;;
11504;SDS011;5809;53.262;10.408;2023-07-16T09:37:03;6.82;;;2.72;;
11504;SDS011;5809;53.262;10.408;2023-07-16T09:39:31;5.15;;;2.55;;
11504;SDS011;5809;53.262;10.408;2023-07-16T09:41:58;6.32;;;3.15;;
11504;SDS011;5809;53.262;10.408;2023-07-16T09:44:25;7.65;;;2.55;;
11504;SDS011;5809;53.262;10.408;2023-07-16T09:46:52;4.38;;;2.80;;
11504;SDS011;5809;53.262;10.408;2023-07-16T09:49:20;6.70;;;2.97;;
11504;SDS011;5809;53.262;10.408;2023-07-16T09:51:47;5.20;;;2.88;;
11504;SDS011;5809;53.262;10.408;2023-07-16T09:54:18;5.78;;;2.83;;
11504;SDS011;5809;53.262;10.408;2023-07-16T09:56:47;6.03;;;2.85;;
11504;SDS011;5809;53.262;10.408;2023-07-16T09:59:16;3.45;;;2.47;;
11504;SDS011;5809;53.262;10.408;2023-07-16T10:01:45;5.72;;;2.50;;
11504;SDS011;5809;53.262;10.408;2023-07-16T10:04:12;4.65;;;2.60;;
11504;SDS011;5809;53.262;10.408;2023-07-16T10:06:51;4.00;;;2.78;;
11504;SDS011;5809;53.262;10.408;2023-07-16T10:09:32;6.20;;;2.80;;
11504;SDS011;5809;53.262;10.408;2023-07-16T10:12:13;6.40;;;3.35;;
11504;SDS011;5809;53.262;10.408;2023-07-16T10:14:41;5.18;;;3.00;;
11504;SDS011;5809;53.262;10.408;2023-07-16T10:17:12;4.25;;;2.88;;
11504;SDS011;5809;53.262;10.408;2023-07-16T10:19:50;4.70;;;3.00;;
11504;SDS011;5809;53.262;10.408;2023-07-16T10:22:19;6.32;;;3.00;;
11504;SDS011;5809;53.262;10.408;2023-07-16T10:24:56;8.30;;;3.72;;
11504;SDS011;5809;53.262;10.408;2023-07-16T10:27:27;4.38;;;3.15;;
11504;SDS011;5809;53.262;10.408;2023-07-16T10:29:54;5.72;;;3.15;;
11504;SDS011;5809;53.262;10.408;2023-07-16T10:32:21;3.30;;;2.97;;
11504;SDS011;5809;53.262;10.408;2023-07-16T10:34:51;3.92;;;2.78;;
11504;SDS011;5809;53.262;10.408;2023-07-16T10:37:20;4.28;;;2.63;;
11504;SDS011;5809;53.262;10.408;2023-07-16T10:39:47;6.18;;;2.92;;
11504;SDS011;5809;53.262;10.408;2023-07-16T10:42:15;3.60;;;3.13;;
11504;SDS011;5809;53.262;10.408;2023-07-16T10:44:43;7.82;;;3.42;;
11504;SDS011;5809;53.262;10.408;2023-07-16T10:47:10;6.65;;;3.20;;
11504;SDS011;5809;53.262;10.408;2023-07-16T10:49:44;4.32;;;3.00;;
11504;SDS011;5809;53.262;10.408;2023-07-16T10:52:11;7.72;;;2.72;;
11504;SDS011;5809;53.262;10.408;2023-07-16T10:54:39;5.63;;;3.13;;
11504;SDS011;5809;53.262;10.408;2023-07-16T10:57:06;5.50;;;3.47;;
11504;SDS011;5809;53.262;10.408;2023-07-16T10:59:33;5.85;;;3.20;;
11504;SDS011;5809;53.262;10.408;2023-07-16T11:01:59;5.15;;;3.05;;
11504;SDS011;5809;53.262;10.408;2023-07-16T11:04:26;4.63;;;3.20;;
11504;SDS011;5809;53.262;10.408;2023-07-16T11:07:03;4.40;;;3.15;;
11504;SDS011;5809;53.262;10.408;2023-07-16T11:09:31;4.70;;;3.38;;
11504;SDS011;5809;53.262;10.408;2023-07-16T11:12:06;6.70;;;3.63;;
11504;SDS011;5809;53.262;10.408;2023-07-16T11:14:32;3.42;;;3.00;;
11504;SDS011;5809;53.262;10.408;2023-07-16T11:17:07;3.47;;;3.17;;
11504;SDS011;5809;53.262;10.408;2023-07-16T11:19:35;5.32;;;3.03;;
11504;SDS011;5809;53.262;10.408;2023-07-16T11:22:04;5.28;;;3.10;;
11504;SDS011;5809;53.262;10.408;2023-07-16T11:24:39;4.82;;;3.03;;
11504;SDS011;5809;53.262;10.408;2023-07-16T11:27:13;7.63;;;3.05;;
11504;SDS011;5809;53.262;10.408;2023-07-16T11:29:44;8.02;;;3.13;;
11504;SDS011;5809;53.262;10.408;2023-07-16T11:32:12;5.47;;;3.25;;
11504;SDS011;5809;53.262;10.408;2023-07-16T11:34:51;4.15;;;3.40;;
11504;SDS011;5809;53.262;10.408;2023-07-16T11:37:18;5.60;;;3.55;;
11504;SDS011;5809;53.262;10.408;2023-07-16T11:39:47;6.63;;;3.20;;
11504;SDS011;5809;53.262;10.408;2023-07-16T11:42:17;4.43;;;3.22;;
11504;SDS011;5809;53.262;10.408;2023-07-16T11:44:49;3.50;;;2.83;;
11504;SDS011;5809;53.262;10.408;2023-07-16T11:47:17;6.75;;;3.22;;
11504;SDS011;5809;53.262;10.408;2023-07-16T11:49:43;6.70;;;2.95;;
11504;SDS011;5809;53.262;10.408;2023-07-16T11:52:10;4.10;;;3.13;;
11504;SDS011;5809;53.262;10.408;2023-07-16T11:54:37;4.97;;;2.75;;
11504;SDS011;5809;53.262;10.408;2023-07-16T11:57:04;4.85;;;2.65;;
11504;SDS011;5809;53.262;10.408;2023-07-16T11:59:33;6.40;;;3.38;;
11504;SDS011;5809;53.262;10.408;2023-07-16T12:02:00;4.15;;;2.92;;
11504;SDS011;5809;53.262;10.408;2023-07-16T12:04:27;8.23;;;3.05;;
11504;SDS011;5809;53.262;10.408;2023-07-16T12:06:54;4.97;;;2.90;;
11504;SDS011;5809;53.262;10.408;2023-07-16T12:09:21;3.80;;;3.33;;
11504;SDS011;5809;53.262;10.408;2023-07-16T12:11:48;6.65;;;2.75;;
11504;SDS011;5809;53.262;10.408;2023-07-16T12:14:15;5.32;;;2.88;;
11504;SDS011;5809;53.262;10.408;2023-07-16T12:16:43;5.90;;;3.00;;
11504;SDS011;5809;53.262;10.408;2023-07-16T12:19:10;6.35;;;2.97;;
11504;SDS011;5809;53.262;10.408;2023-07-16T12:21:37;3.78;;;2.83;;
11504;SDS011;5809;53.262;10.408;2023-07-16T12:24:04;4.68;;;2.78;;
11504;SDS011;5809;53.262;10.408;2023-07-16T12:26:31;4.85;;;2.95;;
11504;SDS011;5809;53.262;10.408;2023-07-16T12:28:59;4.07;;;2.72;;
11504;SDS011;5809;53.262;10.408;2023-07-16T12:31:29;13.15;;;2.92;;
11504;SDS011;5809;53.262;10.408;2023-07-16T12:33:57;4.43;;;2.78;;
11504;SDS011;5809;53.262;10.408;2023-07-16T12:36:25;4.38;;;3.05;;
11504;SDS011;5809;53.262;10.408;2023-07-16T12:38:52;6.65;;;2.75;;
11504;SDS011;5809;53.262;10.408;2023-07-16T12:41:18;7.10;;;2.90;;
11504;SDS011;5809;53.262;10.408;2023-07-16T12:43:45;3.65;;;2.78;;
11504;SDS011;5809;53.262;10.408;2023-07-16T12:46:12;4.65;;;3.00;;
11504;SDS011;5809;53.262;10.408;2023-07-16T12:48:39;9.38;;;2.92;;
11504;SDS011;5809;53.262;10.408;2023-07-16T12:51:07;4.75;;;2.78;;
11504;SDS011;5809;53.262;10.408;2023-07-16T12:53:34;4.50;;;2.65;;
11504;SDS011;5809;53.262;10.408;2023-07-16T12:56:01;5.43;;;2.55;;
11504;SDS011;5809;53.262;10.408;2023-07-16T12:58:28;4.10;;;2.50;;
11504;SDS011;5809;53.262;10.408;2023-07-16T13:00:54;4.53;;;2.80;;
11504;SDS011;5809;53.262;10.408;2023-07-16T13:03:21;4.22;;;2.58;;
11504;SDS011;5809;53.262;10.408;2023-07-16T13:05:48;3.45;;;2.60;;
11504;SDS011;5809;53.262;10.408;2023-07-16T13:08:16;5.40;;;2.50;;
11504;SDS011;5809;53.262;10.408;2023-07-16T13:10:43;6.88;;;2.50;;
11504;SDS011;5809;53.262;10.408;2023-07-16T13:13:10;6.00;;;2.50;;
11504;SDS011;5809;53.262;10.408;2023-07-16T13:15:37;5.90;;;2.42;;
11504;SDS011;5809;53.262;10.408;2023-07-16T13:18:03;6.53;;;2.40;;
11504;SDS011;5809;53.262;10.408;2023-07-16T13:20:30;7.40;;;2.63;;
11504;SDS011;5809;53.262;10.408;2023-07-16T13:22:57;3.80;;;2.25;;
11504;SDS011;5809;53.262;10.408;2023-07-16T13:25:25;7.55;;;2.80;;
11504;SDS011;5809;53.262;10.408;2023-07-16T13:27:54;3.40;;;2.60;;
11504;SDS011;5809;53.262;10.408;2023-07-16T13:30:21;4.72;;;2.67;;
11504;SDS011;5809;53.262;10.408;2023-07-16T13:32:48;4.60;;;2.70;;
11504;SDS011;5809;53.262;10.408;2023-07-16T13:35:15;5.05;;;2.60;;
11504;SDS011;5809;53.262;10.408;2023-07-16T13:37:42;4.95;;;2.65;;
11504;SDS011;5809;53.262;10.408;2023-07-16T13:40:08;6.18;;;2.75;;
11504;SDS011;5809;53.262;10.408;2023-07-16T13:42:37;5.95;;;2.80;;
11504;SDS011;5809;53.262;10.408;2023-07-16T13:45:04;5.68;;;2.90;;
11504;SDS011;5809;53.262;10.408;2023-07-16T13:47:32;4.57;;;3.00;;
11504;SDS011;5809;53.262;10.408;2023-07-16T13:49:59;4.47;;;2.95;;
11504;SDS011;5809;53.262;10.408;2023-07-16T13:52:25;7.35;;;2.83;;
11504;SDS011;5809;53.262;10.408;2023-07-16T13:54:52;6.10;;;2.80;;
11504;SDS011;5809;53.262;10.408;2023-07-16T13:57:19;8.98;;;3.13;;
11504;SDS011;5809;53.262;10.408;2023-07-16T13:59:47;3.13;;;2.33;;
11504;SDS011;5809;53.262;10.408;2023-07-16T14:02:14;5.25;;;2.70;;
11504;SDS011;5809;53.262;10.408;2023-07-16T14:04:41;5.57;;;2.75;;
11504;SDS011;5809;53.262;10.408;2023-07-16T14:07:08;4.40;;;2.90;;
11504;SDS011;5809;53.262;10.408;2023-07-16T14:09:35;5.20;;;2.72;;
11504;SDS011;5809;53.262;10.408;2023-07-16T14:12:01;4.15;;;3.13;;
11504;SDS011;5809;53.262;10.408;2023-07-16T14:14:29;4.07;;;2.78;;
11504;SDS011;5809;53.262;10.408;2023-07-16T14:16:57;4.82;;;3.03;;
11504;SDS011;5809;53.262;10.408;2023-07-16T14:19:24;4.85;;;2.80;;
11504;SDS011;5809;53.262;10.408;2023-07-16T14:21:50;5.57;;;2.88;;
11504;SDS011;5809;53.262;10.408;2023-07-16T14:24:17;7.20;;;3.10;;
11504;SDS011;5809;53.262;10.408;2023-07-16T14:26:44;5.40;;;2.80;;
11504;SDS011;5809;53.262;10.408;2023-07-16T14:29:11;5.40;;;2.40;;
11504;SDS011;5809;53.262;10.408;2023-07-16T14:31:39;3.22;;;2.55;;
11504;SDS011;5809;53.262;10.408;2023-07-16T14:34:07;5.80;;;2.63;;
11504;SDS011;5809;53.262;10.408;2023-07-16T14:36:33;3.97;;;2.40;;
11504;SDS011;5809;53.262;10.408;2023-07-16T14:39:00;3.65;;;2.63;;
11504;SDS011;5809;53.262;10.408;2023-07-16T14:41:27;4.88;;;2.67;;
11504;SDS011;5809;53.262;10.408;2023-07-16T14:43:54;5.45;;;3.15;;
11504;SDS011;5809;53.262;10.408;2023-07-16T14:46:21;5.70;;;2.85;;
11504;SDS011;5809;53.262;10.408;2023-07-16T14:48:48;5.20;;;2.60;;
11504;SDS011;5809;53.262;10.408;2023-07-16T14:51:18;6.40;;;2.72;;